Time;durP1;ratioP1;P1;durP2;ratioP2;P2;SDS_P1;SDS_P2;PMS_P1;PMS_P2;Temp;Humidity;BMP_temperature;BMP_pressure;BME280_temperature;BME280_humidity;BME280_pressure;Samples;Min_cycle;Max_cycle;Signal;HPM_P1;HPM_P2
2022/05/03 00:01:09;;;;;;;23.20;16.90;;;;;;;7.55;55.76;100060.54;130535;1265;108565;-81
2022/05/03 00:04:24;;;;;;;30.40;18.30;;;;;;;7.51;55.73;100057.51;130488;1266;108610;-80
2022/05/03 00:07:35;;;;;;;29.10;19.30;;;;;;;7.48;55.55;100056.39;130372;1267;108650;-80
2022/05/03 00:10:52;;;;;;;30.70;19.90;;;;;;;7.46;55.87;100056.35;130414;1267;108754;-78
2022/05/03 00:14:11;;;;;;;33.20;19.80;;;;;;;7.43;55.91;100055.38;130365;1267;108553;-79
2022/05/03 00:17:19;;;;;;;34.40;21.40;;;;;;;7.38;55.82;100057.40;130376;1267;108658;-79
2022/05/03 00:20:25;;;;;;;39.50;24.90;;;;;;;7.37;55.87;100054.70;130528;1267;107475;-80
2022/05/03 00:23:32;;;;;;;35.00;22.30;;;;;;;7.36;56.26;100052.13;130714;1267;108739;-79
2022/05/03 00:26:37;;;;;;;26.70;18.40;;;;;;;7.35;56.20;100052.18;130618;1267;108662;-78
2022/05/03 00:29:43;;;;;;;26.50;18.20;;;;;;;7.32;56.29;100052.67;130497;1267;109462;-77
2022/05/03 00:32:49;;;;;;;26.00;17.90;;;;;;;7.31;56.51;100055.45;130465;1266;108795;-78
2022/05/03 00:35:55;;;;;;;24.80;17.40;;;;;;;7.32;56.44;100054.60;130417;1267;108768;-79
2022/05/03 00:39:00;;;;;;;24.60;17.50;;;;;;;7.32;56.45;100048.94;130412;1266;107846;-77
2022/05/03 00:42:16;;;;;;;40.00;24.10;;;;;;;7.34;56.69;100046.11;130447;1266;108803;-77
2022/05/03 00:45:33;;;;;;;32.90;21.20;;;;;;;7.36;56.83;100045.06;130567;1267;108923;-79
2022/05/03 00:48:53;;;;;;;32.50;20.30;;;;;;;7.37;56.94;100047.13;130506;1267;108964;-81
2022/05/03 00:52:07;;;;;;;29.60;19.30;;;;;;;7.34;57.16;100049.98;130480;1267;108814;-82
2022/05/03 00:56:02;;;;;;;26.40;17.00;;;;;;;7.31;57.37;100048.73;130526;1267;108744;-78
2022/05/03 00:59:24;;;;;;;21.90;14.30;;;;;;;7.33;57.40;100047.31;130306;1267;106886;-78
2022/05/03 01:02:37;;;;;;;28.70;16.40;;;;;;;7.33;57.49;100045.36;130687;1267;108912;-77
2022/05/03 01:05:55;;;;;;;27.20;18.70;;;;;;;7.38;57.30;100044.86;130389;1267;108803;-76
2022/05/03 01:09:06;;;;;;;34.20;20.70;;;;;;;7.45;57.31;100041.39;130404;1266;107005;-77
2022/05/03 01:12:24;;;;;;;40.20;23.30;;;;;;;7.49;57.42;100043.91;130376;1267;108960;-76
2022/05/03 01:15:34;;;;;;;35.40;21.10;;;;;;;7.49;57.40;100042.80;130400;1267;108953;-76
2022/05/03 01:18:50;;;;;;;29.30;19.10;;;;;;;7.50;57.67;100044.02;130380;1267;108756;-77
2022/05/03 01:22:18;;;;;;;25.30;17.40;;;;;;;7.47;57.78;100043.73;130331;1267;108849;-77
2022/05/03 01:25:46;;;;;;;25.80;17.00;;;;;;;7.44;57.63;100039.77;130395;1267;109148;-77
2022/05/03 01:29:05;;;;;;;24.20;16.20;;;;;;;7.37;57.82;100042.64;130337;1267;109338;-76
2022/05/03 01:32:12;;;;;;;24.60;15.80;;;;;;;7.34;57.55;100045.08;130413;1266;108738;-77
2022/05/03 01:35:21;;;;;;;22.40;15.70;;;;;;;7.33;57.80;100043.55;130365;1267;108629;-77
2022/05/03 01:38:52;;;;;;;26.80;16.80;;;;;;;7.33;57.80;100042.67;130356;1267;108811;-76
2022/05/03 01:42:01;;;;;;;21.00;14.80;;;;;;;7.31;58.07;100046.73;130381;1267;108661;-76
2022/05/03 01:45:10;;;;;;;23.80;15.30;;;;;;;7.30;58.17;100056.09;130341;1267;108812;-77
2022/05/03 01:52:19;;;;;;;23.00;15.70;;;;;;;7.30;59.02;100058.35;130395;1267;108742;-78
2022/05/03 01:56:01;;;;;;;22.40;16.00;;;;;;;7.35;59.01;100058.98;130385;1267;108949;-79
2022/05/03 01:59:24;;;;;;;23.60;15.50;;;;;;;7.45;59.93;100057.85;130489;1267;108752;-78
2022/05/03 02:02:44;;;;;;;21.10;14.60;;;;;;;7.55;60.05;100057.52;130371;1266;108689;-79
2022/05/03 02:06:01;;;;;;;25.50;17.30;;;;;;;7.70;60.84;100054.39;130368;1267;108707;-78
2022/05/03 02:09:08;;;;;;;24.30;16.10;;;;;;;7.86;59.95;100053.47;130523;1267;108674;-81
2022/05/03 02:12:16;;;;;;;24.30;16.80;;;;;;;8.00;60.10;100056.11;130456;1267;108729;-79
2022/05/03 02:15:30;;;;;;;24.50;16.80;;;;;;;8.13;60.10;100057.05;130596;1267;108682;-78
2022/05/03 02:18:49;;;;;;;23.20;16.60;;;;;;;8.22;59.95;100054.08;130430;1267;108672;-78
2022/05/03 02:22:19;;;;;;;21.50;16.50;;;;;;;8.26;59.90;100048.33;130385;1267;108872;-78
2022/05/03 02:25:37;;;;;;;21.00;16.00;;;;;;;8.28;60.15;100055.13;130450;1267;108419;-78
2022/05/03 02:28:46;;;;;;;22.70;16.30;;;;;;;8.31;60.13;100047.95;130410;1267;108678;-79
2022/05/03 02:32:04;;;;;;;20.60;15.90;;;;;;;8.35;60.12;100048.02;130358;1267;107670;-77
2022/05/03 02:35:20;;;;;;;21.70;15.70;;;;;;;8.41;59.75;100049.95;130430;1267;108738;-78
2022/05/03 02:38:36;;;;;;;20.80;15.10;;;;;;;8.49;59.89;100044.32;130825;1267;108851;-79
2022/05/03 02:41:42;;;;;;;20.10;14.90;;;;;;;8.51;59.76;100038.38;130433;1267;109798;-79
2022/05/03 02:44:49;;;;;;;20.20;14.40;;;;;;;8.53;59.40;100037.84;130415;1267;108829;-78
2022/05/03 02:48:05;;;;;;;20.60;14.50;;;;;;;8.54;59.40;100036.21;130564;1267;108683;-80
2022/05/03 02:51:13;;;;;;;21.70;14.90;;;;;;;8.52;59.54;100036.42;130692;1267;108701;-79
2022/05/03 02:54:33;;;;;;;20.10;14.20;;;;;;;8.46;59.46;100040.50;130472;1267;108811;-80
2022/05/03 02:57:49;;;;;;;19.90;13.80;;;;;;;8.36;59.57;100041.89;130400;1267;108718;-78
2022/05/03 03:04:45;;;;;;;20.20;14.00;;;;;;;8.21;59.63;100044.77;130516;1267;107723;-79
2022/05/03 03:07:58;;;;;;;19.80;13.80;;;;;;;8.13;59.42;100044.61;130453;1267;108633;-79
2022/05/03 03:11:07;;;;;;;17.90;12.70;;;;;;;8.04;59.62;100050.88;130481;1266;107124;-79
2022/05/03 03:14:30;;;;;;;16.60;12.10;;;;;;;7.98;59.85;100044.73;130484;1267;106514;-80
2022/05/03 03:17:41;;;;;;;18.50;13.30;;;;;;;7.97;59.73;100047.73;130489;1266;108665;-79
2022/05/03 03:20:50;;;;;;;17.80;12.80;;;;;;;8.01;59.91;100047.36;130458;1267;108631;-77
2022/05/03 03:23:57;;;;;;;19.20;14.00;;;;;;;8.08;60.12;100045.41;130500;1267;108637;-77
2022/05/03 03:27:03;;;;;;;18.40;13.30;;;;;;;8.14;59.96;100044.48;130514;1267;108718;-78
2022/05/03 03:30:13;;;;;;;19.20;13.50;;;;;;;8.18;60.06;100044.48;130493;1267;108937;-77
2022/05/03 03:33:19;;;;;;;19.30;14.10;;;;;;;8.17;60.06;100045.27;130414;1267;108621;-77
2022/05/03 03:36:27;;;;;;;18.40;13.00;;;;;;;8.14;60.24;100051.29;130480;1267;108768;-76
2022/05/03 03:39:33;;;;;;;17.10;13.20;;;;;;;8.12;60.30;100052.83;130473;1267;108776;-76
2022/05/03 03:42:38;;;;;;;19.50;14.00;;;;;;;8.12;60.33;100050.07;130468;1266;108821;-76
2022/05/03 03:45:44;;;;;;;17.70;13.30;;;;;;;8.11;60.19;100049.76;130311;1267;237911;-77
2022/05/03 03:48:50;;;;;;;19.50;13.60;;;;;;;8.16;60.28;100053.55;130474;1267;108714;-77
2022/05/03 03:51:58;;;;;;;19.50;12.80;;;;;;;8.25;60.38;100056.39;130459;1267;109074;-78
2022/05/03 03:55:05;;;;;;;29.80;18.40;;;;;;;8.37;60.55;100051.47;130667;1266;108805;-78
2022/05/03 03:58:13;;;;;;;22.70;15.60;;;;;;;8.50;60.22;100054.82;130662;1267;109045;-78
2022/05/03 04:01:19;;;;;;;20.30;14.20;;;;;;;8.62;60.22;100054.05;130395;1267;108840;-74
2022/05/03 04:04:30;;;;;;;19.20;13.90;;;;;;;8.73;60.21;100054.83;130386;1267;107658;-78
2022/05/03 04:07:36;;;;;;;18.10;13.50;;;;;;;8.85;60.14;100054.58;130464;1266;108562;-77
2022/05/03 04:10:43;;;;;;;16.20;13.00;;;;;;;8.96;60.20;100051.34;130523;1267;108796;-80
2022/05/03 04:13:49;;;;;;;18.90;13.90;;;;;;;9.13;60.14;100053.32;130358;1268;108688;-86
2022/05/03 04:16:55;;;;;;;22.60;14.70;;;;;;;9.24;60.13;100052.33;130500;1267;108642;-77
2022/05/03 04:20:00;;;;;;;21.50;13.10;;;;;;;9.41;60.28;100054.48;130311;1267;108688;-81
2022/05/03 04:23:09;;;;;;;24.80;12.90;;;;;;;9.56;60.17;100054.19;130485;1267;108983;-82
2022/05/03 04:26:15;;;;;;;22.00;13.30;;;;;;;9.75;60.18;100057.66;130354;1268;108749;-79
2022/05/03 04:29:20;;;;;;;19.00;12.90;;;;;;;9.98;60.13;100064.28;130516;1267;108754;-80
2022/05/03 04:32:30;;;;;;;20.90;14.20;;;;;;;10.24;60.16;100063.97;130484;1267;108506;-78
2022/05/03 04:35:35;;;;;;;20.30;14.00;;;;;;;10.53;60.08;100060.73;130394;1267;108708;-78
2022/05/03 04:38:41;;;;;;;18.70;13.40;;;;;;;10.78;60.01;100063.81;130381;1267;108733;-77
2022/05/03 04:41:46;;;;;;;15.90;12.60;;;;;;;10.95;59.79;100063.10;130353;1267;108824;-78
2022/05/03 04:44:52;;;;;;;16.90;12.80;;;;;;;11.15;59.72;100072.45;130453;1266;108687;-81
2022/05/03 04:47:57;;;;;;;18.20;12.70;;;;;;;11.30;60.20;100070.27;130487;1267;108821;-78
2022/05/03 04:51:03;;;;;;;18.50;13.70;;;;;;;11.47;60.06;100069.39;130296;1266;108710;-81
2022/05/03 04:54:08;;;;;;;17.20;13.40;;;;;;;11.65;59.83;100071.83;130468;1266;108980;-76
2022/05/03 04:57:15;;;;;;;15.40;12.20;;;;;;;11.84;59.58;100072.61;130602;1265;107382;-77
2022/05/03 05:00:21;;;;;;;17.30;12.80;;;;;;;12.02;59.59;100081.48;130664;1265;108615;-76
2022/05/03 05:03:27;;;;;;;19.20;12.60;;;;;;;12.18;59.20;100081.38;130499;1265;108678;-76
2022/05/03 05:06:32;;;;;;;17.10;12.60;;;;;;;12.34;58.75;100081.07;130437;1265;107525;-81
2022/05/03 05:10:23;;;;;;;16.10;11.30;;;;;;;12.50;58.29;100080.34;130499;1265;108773;-75
2022/05/03 05:13:04;;;;;;;15.90;11.30;;;;;;;12.67;57.96;100071.88;130472;1266;108786;-78
2022/05/03 05:16:10;;;;;;;12.80;10.70;;;;;;;12.84;57.55;100076.16;130583;1265;108730;-81
2022/05/03 05:19:17;;;;;;;17.10;11.20;;;;;;;12.96;57.50;100078.61;130649;1265;108982;-75
2022/05/03 05:22:23;;;;;;;13.70;10.30;;;;;;;13.10;56.69;100080.52;130547;1265;108663;-81
2022/05/03 05:25:28;;;;;;;11.40;9.10;;;;;;;13.16;56.42;100077.70;130712;1265;108593;-79
2022/05/03 05:28:34;;;;;;;12.00;9.40;;;;;;;13.21;55.65;100075.27;130593;1267;108619;-81
2022/05/03 05:31:39;;;;;;;12.00;8.80;;;;;;;13.30;55.80;100077.52;130624;1265;107556;-84
2022/05/03 05:34:45;;;;;;;9.30;7.70;;;;;;;13.38;54.91;100080.91;130595;1265;108834;-85
2022/05/03 05:37:51;;;;;;;10.50;7.40;;;;;;;13.34;53.91;100079.60;130631;1266;108676;-80
2022/05/03 05:40:56;;;;;;;8.30;7.00;;;;;;;13.26;53.13;100082.21;130501;1265;109594;-84
2022/05/03 05:44:03;;;;;;;8.40;7.10;;;;;;;13.26;53.30;100083.73;130551;1265;107701;-80
2022/05/03 05:47:09;;;;;;;8.20;6.50;;;;;;;13.25;53.69;100085.77;130563;1265;109437;-85
2022/05/03 05:50:14;;;;;;;7.90;6.50;;;;;;;13.26;53.33;100086.33;130779;1266;108912;-92
2022/05/03 05:53:35;;;;;;;11.20;7.30;;;;;;;13.29;53.06;100090.48;130455;1265;107817;-85
2022/05/03 05:56:41;;;;;;;7.60;6.20;;;;;;;13.27;52.29;100090.00;130619;1265;108618;-83
2022/05/03 05:59:46;;;;;;;8.70;6.80;;;;;;;13.26;52.28;100088.48;130546;1266;105627;-84
2022/05/03 06:02:52;;;;;;;8.50;6.70;;;;;;;13.24;52.08;100088.91;130640;1265;107620;-81
2022/05/03 06:05:57;;;;;;;7.60;6.60;;;;;;;13.21;52.47;100089.94;130657;1265;107804;-78
2022/05/03 06:09:03;;;;;;;10.90;6.70;;;;;;;13.21;51.99;100095.69;130542;1265;108687;-76
2022/05/03 06:12:10;;;;;;;7.50;5.60;;;;;;;13.17;51.43;100100.58;130439;1265;108814;-76
2022/05/03 06:15:16;;;;;;;9.00;6.00;;;;;;;13.14;51.69;100105.23;130438;1265;108773;-75
2022/05/03 06:18:22;;;;;;;10.10;6.50;;;;;;;13.16;51.26;100111.06;130659;1265;108670;-76
2022/05/03 06:21:28;;;;;;;7.70;6.30;;;;;;;13.11;50.85;100111.48;130602;1266;108627;-76
2022/05/03 06:24:34;;;;;;;7.30;5.50;;;;;;;13.07;50.72;100112.78;130382;1265;108943;-75
2022/05/03 06:27:39;;;;;;;6.40;5.20;;;;;;;13.09;51.39;100115.23;130403;1265;108881;-74
2022/05/03 06:30:45;;;;;;;10.00;7.10;;;;;;;13.12;50.22;100116.52;130488;1265;108596;-79
2022/05/03 06:33:50;;;;;;;8.80;6.80;;;;;;;13.13;51.00;100117.49;130606;1266;108844;-75
2022/05/03 06:36:56;;;;;;;7.20;5.10;;;;;;;13.22;50.67;100120.04;130446;1267;108957;-82
2022/05/03 06:40:01;;;;;;;8.50;5.10;;;;;;;13.23;49.89;100119.54;130527;1266;108952;-82
2022/05/03 06:43:07;;;;;;;7.90;4.80;;;;;;;13.24;49.82;100124.05;130602;1267;110007;-84
2022/05/03 06:46:13;;;;;;;9.10;4.90;;;;;;;13.30;48.62;100124.50;130546;1266;106831;-83
2022/05/03 06:49:20;;;;;;;5.20;4.20;;;;;;;13.35;49.69;100124.67;130684;1267;108837;-84
2022/05/03 06:52:25;;;;;;;6.80;4.00;;;;;;;13.43;48.38;100124.38;130672;1267;108956;-82
2022/05/03 06:55:31;;;;;;;6.50;4.20;;;;;;;13.46;48.96;100123.55;130624;1266;108801;-81
2022/05/03 06:58:37;;;;;;;6.70;4.50;;;;;;;13.60;49.43;100126.80;130780;1266;108725;-82
2022/05/03 07:01:42;;;;;;;7.70;4.50;;;;;;;13.64;47.22;100126.66;130502;1267;107741;-81
2022/05/03 07:04:49;;;;;;;4.80;4.00;;;;;;;13.57;47.89;100123.75;130454;1266;108738;-83
2022/05/03 07:07:56;;;;;;;5.30;3.70;;;;;;;13.52;48.70;100123.66;130661;1266;108581;-81
2022/05/03 07:11:02;;;;;;;4.90;4.30;;;;;;;13.51;47.30;100130.73;130390;1268;108791;-86
2022/05/03 07:14:07;;;;;;;6.50;4.20;;;;;;;13.58;48.62;100124.56;130540;1267;108877;-87
2022/05/03 07:22:45;;;;;;;6.00;4.20;;;;;;;13.85;48.48;100122.00;130994;1266;107681;-83
2022/05/03 07:24:02;;;;;;;5.40;3.70;;;;;;;14.20;48.20;100118.53;130549;1266;108632;-82
2022/05/03 07:27:07;;;;;;;5.70;4.00;;;;;;;14.36;47.99;100115.46;130398;1268;108646;-81
2022/05/03 07:30:14;;;;;;;5.70;4.10;;;;;;;14.47;47.76;100111.34;130287;1268;108883;-80
2022/05/03 07:33:20;;;;;;;4.60;3.80;;;;;;;14.51;47.98;100116.94;130364;1268;107563;-81
2022/05/03 07:36:28;;;;;;;5.60;4.00;;;;;;;14.52;47.07;100120.59;130384;1267;108967;-79
2022/05/03 07:39:33;;;;;;;6.00;3.50;;;;;;;14.43;46.48;100123.58;130364;1268;108749;-79
2022/05/03 07:42:39;;;;;;;4.40;3.70;;;;;;;14.41;46.21;100125.69;130350;1267;107658;-77
2022/05/03 07:45:45;;;;;;;3.80;3.40;;;;;;;14.37;46.23;100128.88;130238;1268;108739;-78
2022/05/03 07:48:50;;;;;;;5.10;3.90;;;;;;;14.42;46.91;100126.25;130303;1267;108653;-79
2022/05/03 07:51:56;;;;;;;6.80;4.00;;;;;;;14.44;45.83;100131.97;130275;1266;108581;-81
2022/05/03 07:55:02;;;;;;;7.10;3.60;;;;;;;14.44;46.26;100130.89;130369;1268;108759;-81
2022/05/03 07:58:07;;;;;;;6.00;4.40;;;;;;;14.49;46.95;100124.38;130451;1268;109235;-84
2022/05/03 08:01:13;;;;;;;5.10;4.00;;;;;;;14.58;46.56;100131.58;130355;1268;108734;-84
2022/05/03 08:04:18;;;;;;;8.00;4.40;;;;;;;14.68;45.86;100127.73;130323;1268;108739;-81
2022/05/03 08:07:24;;;;;;;7.30;4.30;;;;;;;14.65;45.46;100129.54;130397;1268;108513;-81
2022/05/03 08:10:29;;;;;;;7.10;5.00;;;;;;;14.60;45.08;100131.49;130448;1267;108998;-82
2022/05/03 08:13:35;;;;;;;6.20;3.90;;;;;;;14.65;46.08;100127.76;130398;1268;108957;-79
2022/05/03 08:16:40;;;;;;;4.90;4.30;;;;;;;14.80;46.78;100128.60;130252;1268;109226;-77
2022/05/03 08:19:46;;;;;;;6.00;4.60;;;;;;;14.98;46.68;100128.75;130358;1270;108820;-80
2022/05/03 08:22:51;;;;;;;6.00;4.30;;;;;;;15.12;46.41;100130.43;130314;1270;108813;-80
2022/05/03 08:25:57;;;;;;;5.80;5.00;;;;;;;15.20;45.44;100128.05;130540;1267;108726;-76
2022/05/03 08:29:02;;;;;;;6.00;4.10;;;;;;;15.20;45.24;100126.31;130445;1267;108950;-80
2022/05/03 08:32:09;;;;;;;6.30;4.20;;;;;;;15.23;45.98;100124.46;130457;1267;108683;-79
2022/05/03 08:35:15;;;;;;;6.00;5.00;;;;;;;15.37;45.24;100129.27;130415;1267;108661;-81
2022/05/03 08:45:09;;;;;;;6.80;5.10;;;;;;;15.54;44.53;100139.39;130533;1267;108672;-77
2022/05/03 08:48:16;;;;;;;5.80;4.60;;;;;;;15.53;43.54;100141.42;130399;1267;108421;-77
2022/05/03 08:51:24;;;;;;;7.00;5.20;;;;;;;15.45;43.28;100140.83;130421;1267;108809;-79
2022/05/03 08:54:32;;;;;;;7.20;5.10;;;;;;;15.48;43.48;100138.83;130477;1267;108732;-77
2022/05/03 08:57:38;;;;;;;7.30;4.70;;;;;;;15.45;43.16;100142.57;130418;1266;109309;-79
2022/05/03 09:00:45;;;;;;;8.10;5.20;;;;;;;15.50;43.37;100135.59;130455;1267;108639;-76
2022/05/03 09:03:50;;;;;;;6.50;4.80;;;;;;;15.60;44.13;100130.63;130458;1267;109035;-74
2022/05/03 09:06:56;;;;;;;7.60;4.70;;;;;;;15.70;43.14;100128.52;130365;1267;109176;-79
2022/05/03 09:10:17;;;;;;;5.90;4.90;;;;;;;15.74;42.83;100126.42;130456;1267;108747;-79
2022/05/03 09:13:24;;;;;;;6.40;4.60;;;;;;;15.78;43.31;100128.20;130481;1267;108993;-77
2022/05/03 09:16:30;;;;;;;6.60;4.90;;;;;;;15.82;41.95;100128.54;130507;1267;108696;-76
2022/05/03 09:19:35;;;;;;;6.20;4.80;;;;;;;15.78;41.55;100127.64;130460;1267;109464;-79
2022/05/03 09:26:14;;;;;;;9.50;5.80;;;;;;;15.85;40.95;100130.44;130159;1267;108751;-74
2022/05/03 09:29:19;;;;;;;7.90;5.60;;;;;;;15.78;41.48;100125.55;130345;1267;108741;-78
2022/05/03 09:32:37;;;;;;;7.10;5.40;;;;;;;15.77;41.87;100136.64;130489;1267;108743;-73
2022/05/03 09:35:43;;;;;;;7.10;5.30;;;;;;;15.73;41.96;100122.39;130522;1267;108946;-75
2022/05/03 09:38:50;;;;;;;7.40;5.30;;;;;;;15.77;42.17;100116.94;130493;1266;108671;-75
2022/05/03 09:42:10;;;;;;;8.40;4.90;;;;;;;15.80;42.40;100115.70;130372;1266;109142;-73
2022/05/03 09:45:23;;;;;;;9.00;5.30;;;;;;;15.85;42.42;100112.23;130492;1267;108732;-77
2022/05/03 09:48:49;;;;;;;6.70;5.20;;;;;;;16.05;42.41;100108.33;130404;1267;108828;-75
2022/05/03 09:51:54;;;;;;;9.40;5.20;;;;;;;16.27;42.16;100101.94;130536;1267;108832;-73
2022/05/03 09:55:03;;;;;;;7.50;5.30;;;;;;;16.54;42.56;100104.80;130515;1266;108719;-72
2022/05/03 09:58:11;;;;;;;6.20;5.40;;;;;;;16.91;41.64;100098.40;130262;1267;107662;-72
2022/05/03 10:01:17;;;;;;;7.20;5.40;;;;;;;17.11;40.29;100102.80;130428;1267;109522;-71
2022/05/03 10:04:23;;;;;;;7.20;5.30;;;;;;;17.16;40.15;100100.70;130342;1267;108707;-74
2022/05/03 10:07:30;;;;;;;8.00;6.20;;;;;;;17.32;41.55;100100.35;130367;1265;108753;-70
2022/05/03 10:10:35;;;;;;;6.60;4.80;;;;;;;17.48;40.72;100100.87;130441;1267;108770;-74
2022/05/03 10:13:41;;;;;;;5.80;5.10;;;;;;;17.63;41.27;100094.16;130456;1267;107286;-74
2022/05/03 10:23:39;;;;;;;5.80;4.60;;;;;;;17.90;40.48;100097.62;130140;1267;108822;-72
2022/05/03 10:27:02;;;;;;;11.70;4.50;;;;;;;18.05;39.70;100091.66;130592;1267;108720;-72
2022/05/03 10:30:20;;;;;;;6.20;4.60;;;;;;;18.09;39.14;100086.76;130272;1267;108647;-75
2022/05/03 10:33:42;;;;;;;5.30;4.80;;;;;;;18.05;39.50;100093.08;130475;1267;108789;-72
2022/05/03 10:36:47;;;;;;;;;;;;;;;18.12;39.85;100088.29;130503;1267;108739;-74
2022/05/03 10:40:02;;;;;;;7.10;4.80;;;;;;;18.10;39.57;100095.36;130427;1267;108898;-77
2022/05/03 10:43:11;;;;;;;11.50;4.50;;;;;;;18.14;40.11;100086.39;130304;1267;108669;-72
2022/05/03 10:46:22;;;;;;;5.90;4.80;;;;;;;18.09;38.52;100096.85;130435;1267;106907;-73
2022/05/03 10:49:28;;;;;;;5.10;4.60;;;;;;;17.70;37.94;100097.91;130415;1267;108687;-75
2022/05/03 10:52:33;;;;;;;8.00;4.70;;;;;;;17.53;39.13;100090.10;130467;1267;108566;-76
2022/05/03 10:55:59;;;;;;;5.40;4.50;;;;;;;17.44;38.47;100099.03;130369;1267;108695;-76
2022/05/03 10:59:12;;;;;;;7.00;4.70;;;;;;;17.29;38.53;100095.61;130430;1267;108894;-75
2022/05/03 11:02:19;;;;;;;7.50;5.60;;;;;;;17.30;39.21;100088.20;130413;1267;108827;-74
2022/05/03 11:05:25;;;;;;;5.80;4.70;;;;;;;17.29;38.61;100096.98;130392;1267;108594;-73
2022/05/03 11:08:30;;;;;;;6.40;5.20;;;;;;;17.36;39.12;100094.65;130422;1267;108774;-75
2022/05/03 11:11:56;;;;;;;7.60;6.30;;;;;;;17.50;37.88;100088.64;130386;1267;108804;-71
2022/05/03 11:15:07;;;;;;;6.60;5.00;;;;;;;17.45;36.98;100093.67;130386;1267;108718;-73
2022/05/03 11:18:12;;;;;;;7.40;5.00;;;;;;;17.53;37.22;100085.05;130418;1267;108566;-78
2022/05/03 11:21:18;;;;;;;6.20;5.10;;;;;;;17.64;37.03;100081.96;130406;1267;108645;-85
2022/05/03 11:24:25;;;;;;;6.20;4.50;;;;;;;17.73;37.22;100083.69;130458;1267;109008;-77
2022/05/03 11:27:32;;;;;;;4.90;4.20;;;;;;;17.85;37.02;100079.07;130323;1268;108737;-80
2022/05/03 11:30:38;;;;;;;7.30;4.60;;;;;;;17.92;37.45;100080.69;130557;1267;108940;-81
2022/05/03 11:33:55;;;;;;;6.80;5.00;;;;;;;17.80;37.29;100083.33;130592;1267;108830;-77
2022/05/03 11:37:01;;;;;;;5.30;4.30;;;;;;;17.78;37.46;100089.67;130618;1267;107662;-78
2022/05/03 11:40:12;;;;;;;10.20;4.60;;;;;;;17.88;36.43;100084.45;130464;1266;107625;-76
2022/05/03 11:43:19;;;;;;;5.80;4.40;;;;;;;17.92;36.48;100083.17;130463;1267;108730;-79
2022/05/03 11:46:26;;;;;;;6.30;4.70;;;;;;;17.98;36.99;100076.15;130477;1266;108647;-84
2022/05/03 11:49:32;;;;;;;6.80;4.30;;;;;;;18.02;36.57;100080.73;130801;1267;108739;-81
2022/05/03 11:56:04;;;;;;;5.80;4.70;;;;;;;17.98;36.31;100081.84;130503;1267;108718;-80
2022/05/03 11:59:10;;;;;;;5.80;4.10;;;;;;;17.85;35.52;100075.41;130467;1267;107736;-81
2022/05/03 12:02:18;;;;;;;6.40;3.80;;;;;;;17.94;37.10;100063.11;130434;1267;109005;-80
2022/05/03 12:05:24;;;;;;;6.60;4.20;;;;;;;18.00;36.72;100062.70;130391;1267;108901;-80
2022/05/03 12:08:30;;;;;;;7.90;4.40;;;;;;;17.91;36.60;100074.42;130399;1267;108703;-80
2022/05/03 12:12:42;;;;;;;5.50;4.20;;;;;;;17.78;37.01;100073.98;130452;1267;108872;-81
2022/05/03 12:15:15;;;;;;;4.80;3.90;;;;;;;17.84;37.14;100072.11;130356;1267;108808;-82
2022/05/03 12:18:25;;;;;;;5.50;4.10;;;;;;;17.85;36.80;100070.77;130579;1267;108749;-82
2022/05/03 12:21:31;;;;;;;5.40;4.00;;;;;;;17.66;36.10;100070.55;130598;1267;108610;-83
2022/05/03 12:24:41;;;;;;;6.60;4.00;;;;;;;17.58;37.14;100066.80;130279;1267;109772;-83
2022/05/03 12:27:51;;;;;;;4.60;3.70;;;;;;;17.71;36.66;100063.16;130719;1267;108833;-82
2022/05/03 12:31:00;;;;;;;4.60;3.70;;;;;;;17.87;36.76;100064.96;130807;1266;108974;-82
2022/05/03 12:34:08;;;;;;;5.50;3.60;;;;;;;17.96;35.78;100060.87;130802;1267;108818;-84
2022/05/03 12:37:14;;;;;;;4.80;3.30;;;;;;;17.85;36.16;100061.64;130440;1267;108562;-85
2022/05/03 12:40:27;;;;;;;4.60;3.60;;;;;;;17.67;35.57;100067.61;130834;1267;108945;-81
2022/05/03 12:43:31;;;;;;;;;;;;;;;17.70;36.25;100055.48;130651;1267;108954;-83
2022/05/03 12:46:36;;;;;;;4.00;3.40;;;;;;;17.84;36.51;100053.91;130533;1267;108671;-83
2022/05/03 12:49:42;;;;;;;4.60;3.40;;;;;;;17.85;35.96;100057.25;130495;1267;108784;-82
2022/05/03 12:52:48;;;;;;;6.30;3.70;;;;;;;17.74;36.26;100054.53;130521;1267;108879;-80
2022/05/03 12:55:55;;;;;;;6.30;3.40;;;;;;;17.63;36.07;100051.20;130723;1267;108737;-83
2022/05/03 12:59:00;;;;;;;5.40;3.30;;;;;;;17.55;36.13;100046.83;130604;1267;108581;-81
2022/05/03 13:02:07;;;;;;;3.70;3.00;;;;;;;17.55;36.39;100052.34;130604;1267;107754;-81
2022/05/03 13:05:13;;;;;;;4.80;3.20;;;;;;;17.57;36.16;100046.24;130414;1267;108630;-78
2022/05/03 13:08:19;;;;;;;3.70;3.10;;;;;;;17.70;36.28;100049.80;130408;1267;108027;-78
2022/05/03 13:11:24;;;;;;;3.90;3.20;;;;;;;17.76;36.46;100048.23;130391;1266;108774;-79
2022/05/03 13:14:31;;;;;;;5.30;3.20;;;;;;;17.83;36.15;100040.38;130285;1268;108694;-77
2022/05/03 13:17:37;;;;;;;4.20;3.50;;;;;;;17.86;36.15;100037.48;130371;1266;109019;-78
2022/05/03 13:20:43;;;;;;;5.50;3.40;;;;;;;17.75;36.62;100033.59;130693;1268;108792;-78
2022/05/03 13:23:49;;;;;;;5.80;3.50;;;;;;;17.66;36.15;100039.70;130553;1267;108801;-78
2022/05/03 13:26:55;;;;;;;4.30;3.10;;;;;;;17.63;36.51;100043.81;130574;1268;108622;-78
2022/05/03 13:30:01;;;;;;;4.40;2.80;;;;;;;17.53;36.25;100039.50;130588;1269;108760;-77
2022/05/03 13:33:07;;;;;;;4.70;2.60;;;;;;;17.57;36.84;100038.52;130683;1268;108643;-78
2022/05/03 13:43:04;;;;;;;4.60;2.90;;;;;;;17.54;35.58;100033.66;131020;1266;108672;-79
2022/05/03 13:46:10;;;;;;;4.20;2.80;;;;;;;17.44;35.68;100034.23;130834;1268;108769;-79
2022/05/03 13:49:16;;;;;;;5.00;2.50;;;;;;;17.35;35.62;100034.02;130842;1268;108747;-79
2022/05/03 13:52:22;;;;;;;7.40;3.10;;;;;;;17.47;36.10;100028.50;130687;1268;108616;-79
2022/05/03 13:55:27;;;;;;;3.60;2.80;;;;;;;17.71;35.67;100022.82;130486;1268;108681;-78
2022/05/03 13:58:33;;;;;;;5.30;3.80;;;;;;;17.83;35.90;100021.10;130556;1268;108636;-78
2022/05/03 14:01:39;;;;;;;4.90;2.30;;;;;;;17.95;35.76;100015.93;130457;1268;108461;-78
2022/05/03 14:04:45;;;;;;;6.40;3.50;;;;;;;17.89;35.31;100022.05;130552;1268;108673;-78
2022/05/03 14:07:51;;;;;;;4.50;2.20;;;;;;;17.77;35.58;100020.03;130688;1267;108587;-78
2022/05/03 14:10:56;;;;;;;3.60;2.50;;;;;;;17.67;34.99;100020.02;130694;1268;107694;-78
2022/05/03 14:14:02;;;;;;;3.30;2.00;;;;;;;17.54;34.96;100018.21;130445;1267;109240;-77
2022/05/03 14:17:08;;;;;;;2.80;2.10;;;;;;;17.56;35.73;100017.06;130407;1267;107616;-78
2022/05/03 14:20:14;;;;;;;3.00;2.20;;;;;;;17.64;35.71;100014.34;130395;1268;108728;-78
2022/05/03 14:23:21;;;;;;;3.90;2.30;;;;;;;17.67;35.22;100014.67;130465;1266;108782;-78
2022/05/03 14:26:27;;;;;;;3.00;2.20;;;;;;;17.58;35.05;100019.52;130439;1268;108601;-78
2022/05/03 14:29:32;;;;;;;3.60;2.10;;;;;;;17.45;35.14;100018.62;130492;1268;108789;-78
2022/05/03 14:32:38;;;;;;;22.40;13.80;;;;;;;17.29;34.90;100021.89;130605;1268;108851;-78
2022/05/03 14:35:44;;;;;;;5.50;4.40;;;;;;;17.16;35.58;100024.66;130471;1267;108872;-78
2022/05/03 14:38:51;;;;;;;3.50;2.40;;;;;;;17.08;35.73;100023.52;130464;1267;108759;-78
2022/05/03 14:41:56;;;;;;;5.30;2.60;;;;;;;17.04;35.69;100023.30;130639;1268;108820;-78
2022/05/03 14:45:02;;;;;;;5.70;3.00;;;;;;;17.07;35.88;100016.17;130571;1268;108810;-79
2022/05/03 14:48:09;;;;;;;6.70;3.90;;;;;;;17.15;35.71;100014.20;130442;1268;107852;-78
2022/05/03 14:51:15;;;;;;;4.10;2.30;;;;;;;17.28;35.93;100010.82;130646;1268;108771;-78
2022/05/03 14:54:20;;;;;;;4.30;2.30;;;;;;;17.36;35.00;100019.13;130633;1267;108519;-77